createdAt,value
2018-08-23T00:01:37.877Z,30.07
2018-08-23T00:04:10.972Z,30.53
2018-08-23T00:06:53.619Z,32.03
2018-08-23T00:09:30.158Z,30.43
2018-08-23T00:12:00.695Z,33.57
2018-08-23T00:14:41.915Z,28.57
2018-08-23T00:17:16.235Z,31.13
2018-08-23T00:19:54.927Z,30.40
2018-08-23T00:22:31.601Z,29.80
2018-08-23T00:24:59.996Z,30.67
2018-08-23T00:27:32.970Z,31.27
2018-08-23T00:30:02.686Z,29.43
2018-08-23T00:32:31.350Z,28.83
2018-08-23T00:35:03.460Z,30.97
2018-08-23T00:37:32.110Z,28.33
2018-08-23T00:40:09.036Z,29.67
2018-08-23T00:42:37.724Z,35.97
2018-08-23T00:45:14.565Z,30.43
2018-08-23T00:47:44.136Z,41.33
2018-08-23T00:50:55.772Z,35.80
2018-08-23T00:53:24.418Z,40.00
2018-08-23T00:56:28.232Z,36.20
2018-08-23T00:59:00.422Z,35.23
2018-08-23T01:01:33.632Z,35.80
2018-08-23T01:04:18.697Z,36.67
2018-08-23T01:06:54.889Z,37.10
2018-08-23T01:09:31.853Z,32.70
2018-08-23T01:12:00.436Z,38.40
2018-08-23T01:14:32.416Z,35.57
2018-08-23T01:17:14.382Z,38.10
2018-08-23T01:19:49.422Z,35.63
2018-08-23T01:22:23.495Z,36.00
2018-08-23T01:24:55.242Z,39.77
2018-08-23T01:27:38.227Z,36.23
2018-08-23T01:30:25.495Z,35.13
2018-08-23T01:32:55.126Z,33.73
2018-08-23T01:35:23.824Z,35.87
2018-08-23T01:37:52.415Z,35.20
2018-08-23T01:40:27.422Z,35.23
2018-08-23T01:43:01.792Z,35.63
2018-08-23T01:45:40.965Z,34.57
2018-08-23T01:48:11.905Z,38.07
2018-08-23T01:50:46.036Z,33.17
2018-08-23T01:53:15.712Z,34.07
2018-08-23T01:55:55.372Z,33.00
2018-08-23T01:58:27.119Z,37.97
2018-08-23T02:03:51.294Z,36.63
2018-08-23T02:09:13.163Z,43.60
2018-08-23T02:11:41.851Z,38.70
2018-08-23T02:14:11.406Z,40.53
2018-08-23T02:16:50.417Z,38.23
2018-08-23T02:19:23.578Z,35.80
2018-08-23T02:21:52.238Z,40.53
2018-08-23T02:24:27.798Z,41.40
2018-08-23T02:26:56.369Z,38.10
2018-08-23T02:29:37.696Z,39.17
2018-08-23T02:32:18.026Z,38.57
2018-08-23T02:34:48.916Z,38.70
2018-08-23T02:37:20.634Z,36.03
2018-08-23T02:39:59.476Z,37.60
2018-08-23T02:42:28.170Z,35.67
2018-08-23T02:45:02.074Z,38.90
2018-08-23T02:47:32.047Z,39.70
2018-08-23T02:50:00.658Z,36.23
2018-08-23T02:52:35.431Z,39.17
2018-08-23T02:55:05.150Z,37.07
2018-08-23T02:57:33.924Z,32.03
2018-08-23T03:00:06.814Z,36.63
2018-08-23T03:02:49.285Z,31.90
2018-08-23T03:05:22.616Z,32.47
2018-08-23T03:07:51.281Z,32.90
2018-08-23T03:10:25.486Z,34.47
2018-08-23T03:13:04.333Z,33.37
2018-08-23T03:15:43.807Z,35.43
2018-08-23T03:18:36.087Z,30.97
2018-08-23T03:21:07.744Z,35.37
2018-08-23T03:23:45.335Z,34.13
2018-08-23T03:26:21.211Z,37.23
2018-08-23T03:28:54.494Z,37.20
2018-08-23T03:31:23.249Z,32.80
2018-08-23T03:33:53.790Z,39.23
2018-08-23T03:36:23.391Z,38.33
2018-08-23T03:38:51.991Z,32.77
2018-08-23T03:41:30.202Z,35.63
2018-08-23T03:43:59.838Z,36.17
2018-08-23T03:46:47.180Z,36.70
2018-08-23T03:49:36.242Z,34.30
2018-08-23T03:52:05.029Z,37.40
2018-08-23T03:54:49.689Z,38.90
2018-08-23T03:57:19.469Z,37.37
2018-08-23T03:59:53.757Z,42.00
2018-08-23T04:02:36.197Z,39.43
2018-08-23T04:05:14.562Z,39.63
2018-08-23T04:07:49.004Z,37.97
2018-08-23T04:10:29.280Z,37.97
2018-08-23T04:12:59.892Z,37.93
2018-08-23T04:15:31.508Z,35.93
2018-08-23T04:18:14.150Z,38.13
2018-08-23T04:20:55.070Z,38.83
2018-08-23T04:23:23.622Z,34.77
2018-08-23T04:25:52.274Z,39.67
2018-08-23T04:28:26.752Z,37.67
2018-08-23T04:30:59.680Z,34.67
2018-08-23T04:33:30.222Z,38.50
2018-08-23T04:36:21.490Z,38.50
2018-08-23T04:39:01.782Z,38.93
2018-08-23T04:41:32.599Z,39.90
2018-08-23T04:44:10.114Z,35.90
2018-08-23T04:46:42.447Z,33.80
2018-08-23T04:49:14.197Z,37.70
2018-08-23T04:51:44.825Z,39.40
2018-08-23T04:54:18.346Z,37.93
2018-08-23T04:56:50.215Z,40.03
2018-08-23T04:59:18.831Z,39.50
2018-08-23T05:01:49.339Z,40.13
2018-08-23T05:04:21.730Z,45.07
2018-08-23T05:06:50.487Z,46.37
2018-08-23T05:09:19.998Z,46.37
2018-08-23T05:11:48.394Z,47.03
2018-08-23T05:14:17.347Z,48.50
2018-08-23T05:16:52.585Z,44.73
2018-08-23T05:19:27.361Z,44.70
2018-08-23T05:21:56.954Z,44.63
2018-08-23T05:24:25.375Z,44.27
2018-08-23T05:26:54.062Z,44.93
2018-08-23T05:29:22.674Z,44.10
2018-08-23T05:31:51.128Z,46.00
2018-08-23T05:34:25.028Z,42.37
2018-08-23T05:36:54.266Z,44.57
2018-08-23T05:40:00.212Z,43.07
2018-08-23T05:42:48.745Z,41.27
2018-08-23T05:45:18.154Z,49.17
2018-08-23T05:47:48.750Z,48.37
2018-08-23T05:50:23.427Z,46.10
2018-08-23T05:52:51.899Z,43.33
2018-08-23T05:55:20.650Z,48.63
2018-08-23T05:57:50.258Z,47.83
2018-08-23T06:00:23.508Z,50.00
2018-08-23T06:02:56.517Z,52.33
2018-08-23T06:05:25.169Z,52.07
2018-08-23T06:07:53.859Z,50.43
2018-08-23T06:10:28.130Z,52.67
2018-08-23T06:13:04.139Z,52.57
2018-08-23T06:15:46.110Z,51.37
2018-08-23T06:18:17.404Z,52.73
2018-08-23T06:20:48.010Z,47.87
2018-08-23T06:23:21.243Z,49.03
2018-08-23T06:25:50.954Z,53.07
2018-08-23T06:28:26.406Z,50.30
2018-08-23T06:30:55.808Z,57.33
2018-08-23T06:33:37.732Z,51.07
2018-08-23T06:36:13.903Z,56.00
2018-08-23T06:38:47.045Z,52.13
2018-08-23T06:41:15.698Z,52.60
2018-08-23T06:43:44.320Z,52.20
2018-08-23T06:46:13.613Z,58.87
2018-08-23T06:48:46.642Z,61.73
2018-08-23T06:51:18.768Z,65.53
2018-08-23T06:53:52.600Z,55.20
2018-08-23T06:56:35.362Z,57.80
2018-08-23T06:59:09.489Z,59.53
2018-08-23T07:01:47.596Z,57.20
2018-08-23T07:04:17.162Z,52.43
2018-08-23T07:06:58.038Z,55.67
2018-08-23T07:09:27.789Z,53.37
2018-08-23T07:12:14.620Z,52.73
2018-08-23T07:14:56.652Z,53.70
2018-08-23T07:17:36.252Z,50.30
2018-08-23T07:20:14.210Z,49.40
2018-08-23T07:22:47.994Z,51.47
2018-08-23T07:25:18.831Z,52.90
2018-08-23T07:27:49.420Z,51.93
2018-08-23T07:30:19.380Z,47.70
2018-08-23T07:32:50.182Z,51.23
2018-08-23T07:35:19.945Z,52.43
2018-08-23T07:37:51.498Z,47.57
2018-08-23T07:40:23.402Z,45.63
2018-08-23T07:43:10.368Z,42.13
2018-08-23T07:45:38.752Z,50.03
2018-08-23T07:48:07.478Z,47.13
2018-08-23T07:50:36.157Z,47.03
2018-08-23T07:53:05.037Z,43.60
2018-08-23T07:55:34.759Z,38.10
2018-08-23T07:58:03.846Z,35.73
2018-08-23T08:00:41.283Z,39.70
2018-08-23T08:03:10.980Z,36.57
2018-08-23T08:05:45.556Z,36.83
2018-08-23T08:08:18.048Z,37.13
2018-08-23T08:10:47.684Z,40.30
2018-08-23T08:13:34.750Z,37.13
2018-08-23T08:16:14.406Z,33.83
2018-08-23T08:18:42.942Z,33.60
2018-08-23T08:21:18.174Z,36.40
2018-08-23T08:23:56.558Z,37.80
2018-08-23T08:26:26.584Z,34.43
2018-08-23T08:28:55.298Z,36.13
2018-08-23T08:31:25.757Z,37.10
2018-08-23T08:33:57.372Z,38.57
2018-08-23T08:36:29.676Z,37.73
2018-08-23T08:39:00.008Z,36.63
2018-08-23T08:41:33.316Z,39.23
2018-08-23T08:44:04.106Z,38.07
2018-08-23T08:46:32.665Z,39.03
2018-08-23T08:49:02.343Z,40.50
2018-08-23T08:51:32.021Z,38.90
2018-08-23T08:54:04.638Z,42.03
2018-08-23T08:56:40.941Z,38.07
2018-08-23T08:59:10.470Z,37.90
2018-08-23T09:01:45.509Z,37.97
2018-08-23T09:04:37.011Z,37.17
2018-08-23T09:07:18.002Z,37.97
2018-08-23T09:09:58.421Z,40.63
2018-08-23T09:12:33.039Z,39.83
2018-08-23T09:15:03.782Z,42.80
2018-08-23T09:17:45.105Z,39.07
2018-08-23T09:20:27.209Z,38.03
2018-08-23T09:22:59.252Z,40.50
2018-08-23T09:25:34.098Z,40.77
2018-08-23T09:28:07.653Z,42.37
2018-08-23T09:30:37.311Z,38.20
2018-08-23T09:33:14.259Z,37.17
2018-08-23T09:35:42.695Z,35.13
2018-08-23T09:38:18.481Z,31.83
2018-08-23T09:40:47.175Z,29.50
2018-08-23T09:43:16.772Z,29.00
2018-08-23T09:45:55.550Z,27.70
2018-08-23T09:48:26.151Z,25.30
2018-08-23T09:50:55.845Z,24.73
2018-08-23T09:53:26.284Z,22.80
2018-08-23T09:55:56.126Z,21.60
2018-08-23T09:58:31.182Z,23.53
2018-08-23T10:01:07.127Z,21.13
2018-08-23T10:03:40.864Z,21.67
2018-08-23T10:06:22.906Z,21.97
2018-08-23T10:09:08.380Z,22.03
2018-08-23T10:11:53.652Z,22.43
2018-08-23T10:14:32.837Z,20.33
2018-08-23T10:17:11.512Z,21.77
2018-08-23T10:19:45.138Z,23.07
2018-08-23T10:22:29.300Z,25.90
2018-08-23T10:25:07.786Z,27.70
2018-08-23T10:27:39.864Z,24.03
2018-08-23T10:30:11.692Z,34.50
2018-08-23T10:32:40.387Z,27.93
2018-08-23T10:35:09.981Z,27.83
2018-08-23T10:37:39.607Z,25.83
2018-08-23T10:40:08.806Z,25.90
2018-08-23T10:42:38.568Z,27.57
2018-08-23T10:45:11.096Z,27.27
2018-08-23T10:47:51.368Z,27.10
2018-08-23T10:50:37.997Z,27.37
2018-08-23T10:53:16.188Z,27.70
2018-08-23T10:55:50.596Z,28.30
2018-08-23T10:58:19.107Z,31.07
2018-08-23T11:00:48.763Z,30.00
2018-08-23T11:03:18.354Z,29.53
2018-08-23T11:05:47.042Z,27.40
2018-08-23T11:08:23.618Z,29.33
2018-08-23T11:11:03.295Z,29.50
2018-08-23T11:13:47.676Z,30.17
2018-08-23T11:16:23.719Z,27.73
2018-08-23T11:18:57.518Z,25.87
2018-08-23T11:21:26.174Z,27.03
2018-08-23T11:23:54.968Z,27.27
2018-08-23T11:26:30.360Z,26.60
2018-08-23T11:28:59.089Z,27.53
2018-08-23T11:31:32.634Z,27.60
2018-08-23T11:34:07.776Z,25.00
2018-08-23T11:36:42.520Z,30.43
2018-08-23T11:39:12.172Z,25.73
2018-08-23T11:41:46.021Z,25.33
2018-08-23T11:44:18.234Z,24.83
2018-08-23T11:46:49.914Z,21.87
2018-08-23T11:52:11.248Z,22.97
2018-08-23T11:54:40.870Z,21.53
2018-08-23T11:57:10.500Z,22.37
2018-08-23T11:59:40.097Z,22.73
2018-08-23T12:02:26.234Z,20.97
2018-08-23T12:04:55.946Z,19.60
2018-08-23T12:07:24.594Z,20.47
2018-08-23T12:09:53.253Z,17.77
2018-08-23T12:12:22.594Z,20.33
2018-08-23T12:14:55.377Z,16.93
2018-08-23T12:17:44.194Z,17.27
2018-08-23T12:20:24.255Z,15.87
2018-08-23T12:23:10.426Z,16.43
2018-08-23T12:25:40.964Z,18.10
2018-08-23T12:28:16.894Z,17.10
2018-08-23T12:30:46.336Z,17.40
2018-08-23T12:33:15.055Z,18.83
2018-08-23T12:35:56.968Z,14.83
2018-08-23T12:38:30.886Z,16.47
2018-08-23T12:41:06.856Z,19.47
2018-08-23T12:43:48.535Z,13.67
2018-08-23T12:46:17.764Z,19.37
2018-08-23T12:48:48.510Z,15.93
2018-08-23T12:51:30.488Z,14.20
2018-08-23T12:54:05.021Z,13.70
2018-08-23T12:56:41.704Z,14.00
2018-08-23T12:59:14.186Z,12.13
2018-08-23T13:01:43.822Z,11.47
2018-08-23T13:04:24.248Z,11.60
2018-08-23T13:06:53.778Z,11.30
2018-08-23T13:09:22.549Z,10.53
2018-08-23T13:11:52.104Z,13.30
2018-08-23T13:14:20.720Z,10.70
2018-08-23T13:16:50.314Z,11.97
2018-08-23T13:19:19.970Z,9.20
2018-08-23T13:21:57.695Z,13.93
2018-08-23T13:24:26.280Z,9.20
2018-08-23T13:26:54.956Z,8.77
2018-08-23T13:29:23.830Z,8.83
2018-08-23T13:31:53.494Z,8.67
2018-08-23T13:34:22.218Z,10.70
2018-08-23T13:36:56.794Z,13.20
2018-08-23T13:39:25.542Z,18.60
2018-08-23T13:41:54.180Z,9.13
2018-08-23T13:44:22.776Z,9.57
2018-08-23T13:46:56.644Z,8.37
2018-08-23T13:49:25.388Z,10.30
2018-08-23T13:51:54.178Z,10.30
2018-08-23T13:54:24.984Z,11.40
2018-08-23T13:56:53.712Z,8.00
2018-08-23T13:59:22.293Z,7.77
2018-08-23T14:01:51.043Z,8.90
2018-08-23T14:04:19.766Z,9.17
2018-08-23T14:06:48.403Z,9.93
2018-08-23T14:09:17.160Z,8.90
2018-08-23T14:11:45.698Z,8.33
2018-08-23T14:14:14.473Z,7.50
2018-08-23T14:16:43.003Z,8.00
2018-08-23T14:19:11.739Z,7.47
2018-08-23T14:22:00.380Z,8.67
2018-08-23T14:24:45.938Z,9.60
2018-08-23T14:27:19.617Z,8.73
2018-08-23T14:29:49.205Z,12.33
2018-08-23T14:32:19.749Z,9.70
2018-08-23T14:34:48.458Z,9.53
2018-08-23T14:37:17.170Z,9.30
2018-08-23T14:39:49.580Z,10.20
2018-08-23T14:42:28.550Z,6.30
2018-08-23T14:44:59.171Z,6.43
2018-08-23T14:47:34.054Z,6.53
2018-08-23T14:53:00.814Z,9.87
2018-08-23T14:55:36.762Z,7.17
2018-08-23T14:58:05.503Z,7.20
2018-08-23T15:00:35.365Z,5.80
2018-08-23T15:03:04.886Z,11.00
2018-08-23T15:05:34.551Z,5.87
2018-08-23T15:08:06.214Z,9.23
2018-08-23T15:10:34.908Z,4.70
2018-08-23T15:13:15.192Z,6.77
2018-08-23T15:15:48.869Z,6.43
2018-08-23T15:18:19.113Z,4.90
2018-08-23T15:20:52.110Z,7.47
2018-08-23T15:23:23.602Z,4.67
2018-08-23T15:25:52.229Z,4.40
2018-08-23T15:28:21.896Z,4.80
2018-08-23T15:30:53.555Z,5.80
2018-08-23T15:33:22.791Z,3.70
2018-08-23T15:35:51.271Z,4.13
2018-08-23T15:38:25.651Z,4.03
2018-08-23T15:40:56.478Z,5.77
2018-08-23T15:43:25.074Z,5.87
2018-08-23T15:46:08.116Z,4.70
2018-08-23T15:48:38.033Z,4.43
2018-08-23T15:51:08.644Z,4.13
2018-08-23T15:53:37.260Z,4.57
2018-08-23T15:56:07.874Z,4.87
2018-08-23T15:58:36.535Z,5.27
2018-08-23T16:01:05.413Z,5.33
2018-08-23T16:03:38.576Z,4.70
2018-08-23T16:06:10.324Z,3.77
2018-08-23T16:08:44.091Z,4.40
2018-08-23T16:11:13.807Z,3.83
2018-08-23T16:13:42.958Z,5.03
2018-08-23T16:16:18.414Z,9.40
2018-08-23T16:18:53.364Z,4.53
2018-08-23T16:21:29.082Z,5.97
2018-08-23T16:24:01.621Z,6.37
2018-08-23T16:26:37.325Z,5.10
2018-08-23T16:29:09.021Z,4.73
2018-08-23T16:31:43.542Z,6.07
2018-08-23T16:34:12.156Z,3.40
2018-08-23T16:36:46.676Z,4.23
2018-08-23T16:39:15.361Z,6.07
2018-08-23T16:41:49.941Z,4.27
2018-08-23T16:44:18.847Z,5.10
2018-08-23T16:46:47.557Z,6.10
2018-08-23T16:49:16.181Z,6.17
2018-08-23T16:51:45.802Z,6.17
2018-08-23T16:54:14.494Z,5.73
2018-08-23T16:56:43.290Z,4.27
2018-08-23T16:59:16.217Z,5.67
2018-08-23T17:01:45.823Z,6.80
2018-08-23T17:04:35.658Z,5.23
2018-08-23T17:07:04.342Z,3.57
2018-08-23T17:09:42.185Z,6.87
2018-08-23T17:12:10.741Z,3.87
2018-08-23T17:14:49.710Z,4.17
2018-08-23T17:17:27.591Z,6.20
2018-08-23T17:19:59.376Z,3.60
2018-08-23T17:25:33.352Z,4.40
2018-08-23T17:28:13.725Z,4.00
2018-08-23T17:31:03.000Z,3.37
2018-08-23T17:36:38.695Z,3.87
2018-08-23T17:39:25.268Z,3.27
2018-08-23T17:41:53.767Z,3.27
2018-08-23T17:44:34.726Z,4.60
2018-08-23T17:47:05.213Z,3.97
2018-08-23T17:49:34.568Z,3.47
2018-08-23T17:52:05.161Z,5.07
2018-08-23T17:54:33.734Z,4.23
2018-08-23T17:57:02.323Z,3.83
2018-08-23T17:59:30.703Z,3.23
2018-08-23T18:02:02.484Z,4.33
2018-08-23T18:04:38.896Z,8.40
2018-08-23T18:07:11.312Z,3.03
2018-08-23T18:09:40.071Z,4.30
2018-08-23T18:12:08.853Z,3.03
2018-08-23T18:14:37.453Z,2.80
2018-08-23T18:17:07.465Z,5.63
2018-08-23T18:19:37.563Z,6.33
2018-08-23T18:22:06.419Z,3.80
2018-08-23T18:24:35.033Z,3.73
2018-08-23T18:27:03.727Z,3.87
2018-08-23T18:29:32.425Z,2.70
2018-08-23T18:32:03.537Z,4.13
2018-08-23T18:34:32.128Z,3.47
2018-08-23T18:37:01.702Z,3.43
2018-08-23T18:39:45.041Z,4.30
2018-08-23T18:42:14.866Z,5.90
2018-08-23T18:44:44.467Z,7.23
2018-08-23T18:47:16.152Z,5.33
2018-08-23T18:49:50.633Z,5.03
2018-08-23T18:55:14.349Z,3.10
2018-08-23T18:57:43.722Z,3.20
2018-08-23T19:00:13.626Z,3.37
2018-08-23T19:02:48.865Z,3.63
2018-08-23T19:05:18.264Z,6.23
2018-08-23T19:07:49.121Z,4.13
2018-08-23T19:10:19.005Z,7.67
2018-08-23T19:12:47.610Z,6.40
2018-08-23T19:15:20.477Z,7.20
2018-08-23T19:17:49.239Z,5.00
2018-08-23T19:20:18.767Z,5.67
2018-08-23T19:22:47.822Z,4.57
2018-08-23T19:25:16.663Z,5.13
2018-08-23T19:27:45.191Z,3.20
2018-08-23T19:30:14.876Z,7.53
2018-08-23T19:32:44.179Z,3.30
2018-08-23T19:35:14.909Z,5.63
2018-08-23T19:37:44.672Z,4.40
2018-08-23T19:40:15.355Z,3.10
2018-08-23T19:42:44.359Z,12.73
2018-08-23T19:45:17.862Z,5.47
2018-08-23T19:47:54.843Z,3.50
2018-08-23T19:50:25.512Z,3.43
2018-08-23T19:52:54.223Z,6.60
2018-08-23T19:55:23.621Z,3.53
2018-08-23T19:57:55.894Z,3.63
2018-08-23T20:00:24.826Z,4.33
2018-08-23T20:02:55.167Z,4.53
2018-08-23T20:05:23.761Z,3.00
2018-08-23T20:07:55.895Z,3.40
2018-08-23T20:10:25.911Z,4.50
2018-08-23T20:12:54.392Z,15.30
2018-08-23T20:15:40.891Z,14.80
2018-08-23T20:18:12.571Z,10.97
2018-08-23T20:20:44.030Z,16.03
2018-08-23T20:23:13.749Z,17.13
2018-08-23T20:25:44.323Z,9.07
2018-08-23T20:28:12.975Z,9.10
2018-08-23T20:30:43.527Z,10.83
2018-08-23T20:33:13.228Z,8.90
2018-08-23T20:35:44.413Z,9.23
2018-08-23T20:38:17.589Z,13.50
2018-08-23T20:40:49.765Z,8.87
2018-08-23T20:43:18.339Z,9.97
2018-08-23T20:45:48.601Z,10.47
2018-08-23T20:48:20.185Z,10.77
2018-08-23T20:53:47.759Z,14.17
2018-08-23T20:56:21.432Z,11.37
2018-08-23T20:58:50.418Z,9.27
2018-08-23T21:01:19.144Z,9.37
2018-08-23T21:03:53.670Z,10.93
2018-08-23T21:06:32.108Z,9.43
2018-08-23T21:09:03.212Z,6.30
2018-08-23T21:11:42.723Z,7.27
2018-08-23T21:14:15.631Z,11.07
2018-08-23T21:17:08.252Z,6.93
2018-08-23T21:19:36.911Z,6.37
2018-08-23T21:22:07.458Z,7.00
2018-08-23T21:24:38.157Z,8.67
2018-08-23T21:27:08.852Z,8.90
2018-08-23T21:29:37.597Z,10.33
2018-08-23T21:32:09.548Z,11.53
2018-08-23T21:34:48.698Z,9.60
2018-08-23T21:37:19.237Z,10.80
2018-08-23T21:39:52.564Z,9.60
2018-08-23T21:42:24.385Z,11.60
2018-08-23T21:44:53.082Z,13.47
2018-08-23T21:47:22.625Z,11.13
2018-08-23T21:49:54.417Z,11.90
2018-08-23T21:52:23.212Z,11.53
2018-08-23T21:54:52.726Z,12.57
2018-08-23T21:57:21.384Z,11.47
2018-08-23T21:59:51.552Z,13.03
2018-08-23T22:02:21.333Z,12.83
2018-08-23T22:04:52.511Z,14.13
2018-08-23T22:07:22.253Z,12.63
2018-08-23T22:09:56.806Z,14.40
2018-08-23T22:12:26.241Z,14.07
2018-08-23T22:14:58.737Z,21.97
2018-08-23T22:17:27.239Z,12.87
2018-08-23T22:20:02.161Z,15.00
2018-08-23T22:22:42.319Z,13.37
2018-08-23T22:25:13.157Z,15.13
2018-08-23T22:27:55.916Z,14.57
2018-08-23T22:30:24.417Z,16.20
2018-08-23T22:32:58.746Z,14.63
2018-08-23T22:35:38.908Z,14.60
2018-08-23T22:38:18.350Z,14.97
2018-08-23T22:40:48.937Z,15.07
2018-08-23T22:43:23.118Z,14.43
2018-08-23T22:45:53.768Z,14.57
2018-08-23T22:48:29.561Z,15.30
2018-08-23T22:50:58.070Z,15.67
2018-08-23T22:53:27.693Z,14.40
2018-08-23T22:55:56.119Z,16.07
2018-08-23T22:58:25.641Z,18.90
2018-08-23T23:00:54.064Z,18.77
2018-08-23T23:03:31.850Z,16.73
2018-08-23T23:06:01.333Z,18.27
2018-08-23T23:08:37.614Z,18.43
2018-08-23T23:11:12.473Z,15.47
2018-08-23T23:13:42.038Z,16.30
2018-08-23T23:16:10.618Z,16.93
2018-08-23T23:18:39.137Z,16.30
2018-08-23T23:21:16.276Z,16.73
2018-08-23T23:23:46.794Z,17.07
2018-08-23T23:26:37.841Z,19.73
2018-08-23T23:29:19.458Z,19.73
2018-08-23T23:31:48.149Z,16.67
2018-08-23T23:34:16.874Z,18.90
2018-08-23T23:36:48.643Z,24.23
2018-08-23T23:39:17.242Z,17.87
2018-08-23T23:41:45.902Z,18.23
2018-08-23T23:44:14.554Z,18.40
2018-08-23T23:46:42.884Z,19.50
2018-08-23T23:49:12.594Z,18.03
2018-08-23T23:51:41.598Z,18.07
2018-08-23T23:54:11.150Z,17.87
2018-08-23T23:56:57.669Z,19.80
2018-08-23T23:59:34.622Z,19.27
